sensor_id;sensor_type;location;lat;lon;timestamp;pressure;altitude;pressure_sealevel;temperature;humidity
20630;BME280;17386;43.846;25.950;2022-12-18T00:01:30;102181.47;;;6.74;100.00
20630;BME280;17386;43.846;25.950;2022-12-18T00:03:56;102190.22;;;6.61;100.00
20630;BME280;17386;43.846;25.950;2022-12-18T00:06:23;102191.03;;;6.50;100.00
20630;BME280;17386;43.846;25.950;2022-12-18T00:08:49;102195.41;;;6.41;100.00
20630;BME280;17386;43.846;25.950;2022-12-18T00:11:17;102194.53;;;6.45;100.00
20630;BME280;17386;43.846;25.950;2022-12-18T00:13:43;102190.97;;;6.34;100.00
20630;BME280;17386;43.846;25.950;2022-12-18T00:16:12;102202.38;;;6.26;100.00
20630;BME280;17386;43.846;25.950;2022-12-18T00:18:39;102199.66;;;6.16;100.00
20630;BME280;17386;43.846;25.950;2022-12-18T00:21:06;102201.44;;;6.17;100.00
20630;BME280;17386;43.846;25.950;2022-12-18T00:23:33;102201.44;;;6.14;100.00
20630;BME280;17386;43.846;25.950;2022-12-18T00:26:04;102215.50;;;6.17;100.00
20630;BME280;17386;43.846;25.950;2022-12-18T00:28:29;102210.25;;;6.22;100.00
20630;BME280;17386;43.846;25.950;2022-12-18T00:31:06;102214.63;;;6.12;100.00
20630;BME280;17386;43.846;25.950;2022-12-18T00:33:32;102220.75;;;6.10;100.00
20630;BME280;17386;43.846;25.950;2022-12-18T00:36:05;102228.66;;;6.08;100.00
20630;BME280;17386;43.846;25.950;2022-12-18T00:38:32;102238.31;;;6.08;100.00
20630;BME280;17386;43.846;25.950;2022-12-18T00:40:57;102239.22;;;6.10;100.00
20630;BME280;17386;43.846;25.950;2022-12-18T00:43:23;102242.78;;;6.12;100.00
20630;BME280;17386;43.846;25.950;2022-12-18T00:45:48;102247.09;;;6.03;100.00
20630;BME280;17386;43.846;25.950;2022-12-18T00:48:14;102239.91;;;5.89;100.00
20630;BME280;17386;43.846;25.950;2022-12-18T00:50:39;102256.69;;;5.97;100.00
20630;BME280;17386;43.846;25.950;2022-12-18T00:53:05;102261.09;;;5.96;100.00
20630;BME280;17386;43.846;25.950;2022-12-18T00:55:30;102253.09;;;5.89;100.00
20630;BME280;17386;43.846;25.950;2022-12-18T00:57:56;102254.06;;;5.97;100.00
20630;BME280;17386;43.846;25.950;2022-12-18T01:00:21;102262.03;;;6.00;100.00
20630;BME280;17386;43.846;25.950;2022-12-18T01:02:47;102269.06;;;6.01;100.00
20630;BME280;17386;43.846;25.950;2022-12-18T01:05:13;102257.56;;;5.93;100.00
20630;BME280;17386;43.846;25.950;2022-12-18T01:07:39;102262.91;;;6.00;100.00
20630;BME280;17386;43.846;25.950;2022-12-18T01:10:06;102268.22;;;6.05;100.00
20630;BME280;17386;43.846;25.950;2022-12-18T01:12:32;102269.88;;;5.94;100.00
20630;BME280;17386;43.846;25.950;2022-12-18T01:14:57;102269.88;;;5.92;100.00
20630;BME280;17386;43.846;25.950;2022-12-18T01:17:23;102275.97;;;5.90;100.00
20630;BME280;17386;43.846;25.950;2022-12-18T01:19:48;102265.47;;;5.93;100.00
20630;BME280;17386;43.846;25.950;2022-12-18T01:22:14;102278.69;;;5.96;100.00
20630;BME280;17386;43.846;25.950;2022-12-18T01:24:39;102274.28;;;5.93;100.00
20630;BME280;17386;43.846;25.950;2022-12-18T01:27:05;102276.91;;;5.92;100.00
20630;BME280;17386;43.846;25.950;2022-12-18T01:29:30;102278.59;;;5.88;100.00
20630;BME280;17386;43.846;25.950;2022-12-18T01:31:56;102271.56;;;5.89;100.00
20630;BME280;17386;43.846;25.950;2022-12-18T01:34:22;102283.94;;;5.93;100.00
20630;BME280;17386;43.846;25.950;2022-12-18T01:36:48;102278.69;;;5.94;100.00
20630;BME280;17386;43.846;25.950;2022-12-18T01:39:14;102272.56;;;5.98;100.00
20630;BME280;17386;43.846;25.950;2022-12-18T01:41:41;102255.72;;;5.87;100.00
20630;BME280;17386;43.846;25.950;2022-12-18T01:49:50;102278.72;;;5.97;100.00
20630;BME280;17386;43.846;25.950;2022-12-18T01:52:17;102268.03;;;5.84;100.00
20630;BME280;17386;43.846;25.950;2022-12-18T01:54:44;102285.72;;;5.95;100.00
20630;BME280;17386;43.846;25.950;2022-12-18T01:57:11;102282.25;;;5.99;100.00
20630;BME280;17386;43.846;25.950;2022-12-18T01:59:36;102274.28;;;5.95;100.00
20630;BME280;17386;43.846;25.950;2022-12-18T02:02:03;102293.69;;;6.01;100.00
20630;BME280;17386;43.846;25.950;2022-12-18T02:04:28;102286.66;;;6.02;100.00
20630;BME280;17386;43.846;25.950;2022-12-18T02:12:20;102291.88;;;5.94;100.00
20630;BME280;17386;43.846;25.950;2022-12-18T02:14:54;102298.91;;;5.94;100.00
20630;BME280;17386;43.846;25.950;2022-12-18T02:17:31;102308.47;;;5.87;100.00
20630;BME280;17386;43.846;25.950;2022-12-18T02:28:26;102305.84;;;5.86;100.00
20630;BME280;17386;43.846;25.950;2022-12-18T02:31:01;102313.69;;;5.76;100.00
20630;BME280;17386;43.846;25.950;2022-12-18T02:33:28;102317.13;;;5.71;100.00
20630;BME280;17386;43.846;25.950;2022-12-18T02:35:56;102322.47;;;5.79;100.00
20630;BME280;17386;43.846;25.950;2022-12-18T02:38:24;102326.81;;;5.75;100.00
20630;BME280;17386;43.846;25.950;2022-12-18T02:40:51;102336.44;;;5.68;100.00
20630;BME280;17386;43.846;25.950;2022-12-18T02:43:18;102347.84;;;5.69;100.00
20630;BME280;17386;43.846;25.950;2022-12-18T02:45:54;102354.81;;;5.61;100.00
20630;BME280;17386;43.846;25.950;2022-12-18T02:48:30;102363.66;;;5.64;100.00
20630;BME280;17386;43.846;25.950;2022-12-18T02:51:21;102363.59;;;5.61;100.00
20630;BME280;17386;43.846;25.950;2022-12-18T02:53:53;102371.34;;;5.47;100.00
20630;BME280;17386;43.846;25.950;2022-12-18T02:56:37;102379.19;;;5.40;100.00
20630;BME280;17386;43.846;25.950;2022-12-18T02:59:58;102393.22;;;5.36;100.00
20630;BME280;17386;43.846;25.950;2022-12-18T03:02:37;102390.34;;;5.20;100.00
20630;BME280;17386;43.846;25.950;2022-12-18T03:05:12;102400.06;;;5.21;100.00
20630;BME280;17386;43.846;25.950;2022-12-18T03:08:01;102402.69;;;5.21;100.00
20630;BME280;17386;43.846;25.950;2022-12-18T03:10:32;102385.75;;;5.03;100.00
20630;BME280;17386;43.846;25.950;2022-12-18T03:13:03;102410.53;;;5.17;100.00
20630;BME280;17386;43.846;25.950;2022-12-18T03:15:34;102411.34;;;5.13;100.00
20630;BME280;17386;43.846;25.950;2022-12-18T03:18:05;102428.06;;;5.15;100.00
20630;BME280;17386;43.846;25.950;2022-12-18T03:20:34;102417.53;;;5.15;100.00
20630;BME280;17386;43.846;25.950;2022-12-18T03:23:06;102420.09;;;5.10;100.00
20630;BME280;17386;43.846;25.950;2022-12-18T03:25:34;102418.19;;;5.00;100.00
20630;BME280;17386;43.846;25.950;2022-12-18T03:28:03;102416.31;;;4.91;100.00
20630;BME280;17386;43.846;25.950;2022-12-18T03:30:33;102420.59;;;4.83;100.00
20630;BME280;17386;43.846;25.950;2022-12-18T03:33:05;102424.97;;;4.81;100.00
20630;BME280;17386;43.846;25.950;2022-12-18T03:35:37;102421.44;;;4.81;100.00
20630;BME280;17386;43.846;25.950;2022-12-18T03:38:04;102435.50;;;4.81;100.00
20630;BME280;17386;43.846;25.950;2022-12-18T03:41:19;102443.31;;;4.78;100.00
20630;BME280;17386;43.846;25.950;2022-12-18T03:46:04;102461.72;;;4.74;100.00
20630;BME280;17386;43.846;25.950;2022-12-18T03:48:38;102460.03;;;4.80;100.00
20630;BME280;17386;43.846;25.950;2022-12-18T03:51:11;102464.19;;;4.66;100.00
20630;BME280;17386;43.846;25.950;2022-12-18T03:53:46;102467.72;;;4.66;100.00
20630;BME280;17386;43.846;25.950;2022-12-18T03:56:16;102465.94;;;4.64;100.00
20630;BME280;17386;43.846;25.950;2022-12-18T03:58:42;102469.41;;;4.63;100.00
20630;BME280;17386;43.846;25.950;2022-12-18T04:01:12;102478.19;;;4.63;100.00
20630;BME280;17386;43.846;25.950;2022-12-18T04:03:39;102479.06;;;4.61;100.00
20630;BME280;17386;43.846;25.950;2022-12-18T04:06:06;102477.34;;;4.66;100.00
20630;BME280;17386;43.846;25.950;2022-12-18T04:08:32;102480.81;;;4.60;100.00
20630;BME280;17386;43.846;25.950;2022-12-18T04:11:00;102480.84;;;4.65;100.00
20630;BME280;17386;43.846;25.950;2022-12-18T04:13:31;102485.25;;;4.66;100.00
20630;BME280;17386;43.846;25.950;2022-12-18T04:15:57;102482.66;;;4.68;100.00
20630;BME280;17386;43.846;25.950;2022-12-18T04:18:23;102474.69;;;4.63;100.00
20630;BME280;17386;43.846;25.950;2022-12-18T04:20:48;102478.06;;;4.56;100.00
20630;BME280;17386;43.846;25.950;2022-12-18T04:23:13;102480.50;;;4.45;100.00
20630;BME280;17386;43.846;25.950;2022-12-18T04:25:39;102477.00;;;4.45;100.00
20630;BME280;17386;43.846;25.950;2022-12-18T04:28:04;102490.22;;;4.46;100.00
20630;BME280;17386;43.846;25.950;2022-12-18T04:30:30;102485.50;;;4.28;100.00
20630;BME280;17386;43.846;25.950;2022-12-18T04:32:55;102498.75;;;4.33;100.00
20630;BME280;17386;43.846;25.950;2022-12-18T04:35:21;102501.31;;;4.31;100.00
20630;BME280;17386;43.846;25.950;2022-12-18T04:37:46;102504.81;;;4.30;100.00
20630;BME280;17386;43.846;25.950;2022-12-18T04:40:12;102513.66;;;4.32;100.00
20630;BME280;17386;43.846;25.950;2022-12-18T04:42:39;102517.25;;;4.39;100.00
20630;BME280;17386;43.846;25.950;2022-12-18T04:45:06;102517.19;;;4.34;100.00
20630;BME280;17386;43.846;25.950;2022-12-18T04:47:31;102524.13;;;4.31;100.00
20630;BME280;17386;43.846;25.950;2022-12-18T04:49:57;102534.72;;;4.34;100.00
20630;BME280;17386;43.846;25.950;2022-12-18T04:52:22;102534.59;;;4.28;100.00
20630;BME280;17386;43.846;25.950;2022-12-18T04:54:48;102539.03;;;4.32;100.00
20630;BME280;17386;43.846;25.950;2022-12-18T04:57:13;102546.03;;;4.30;100.00
20630;BME280;17386;43.846;25.950;2022-12-18T04:59:39;102557.41;;;4.27;100.00
20630;BME280;17386;43.846;25.950;2022-12-18T05:02:04;102566.97;;;4.25;100.00
20630;BME280;17386;43.846;25.950;2022-12-18T05:04:29;102575.69;;;4.21;100.00
20630;BME280;17386;43.846;25.950;2022-12-18T05:06:55;102577.28;;;4.13;100.00
20630;BME280;17386;43.846;25.950;2022-12-18T05:09:20;102578.19;;;4.15;100.00
20630;BME280;17386;43.846;25.950;2022-12-18T05:11:46;102579.81;;;4.08;100.00
20630;BME280;17386;43.846;25.950;2022-12-18T05:14:12;102578.91;;;4.06;100.00
20630;BME280;17386;43.846;25.950;2022-12-18T05:16:37;102581.44;;;4.02;100.00
20630;BME280;17386;43.846;25.950;2022-12-18T05:19:03;102594.72;;;4.08;100.00
20630;BME280;17386;43.846;25.950;2022-12-18T05:21:28;102584.97;;;4.04;100.00
20630;BME280;17386;43.846;25.950;2022-12-18T05:23:53;102604.41;;;4.10;100.00
20630;BME280;17386;43.846;25.950;2022-12-18T05:26:19;102600.91;;;4.11;100.00
20630;BME280;17386;43.846;25.950;2022-12-18T05:28:45;102600.75;;;4.04;100.00
20630;BME280;17386;43.846;25.950;2022-12-18T05:31:11;102599.09;;;4.07;100.00
20630;BME280;17386;43.846;25.950;2022-12-18T05:33:36;102610.47;;;4.06;100.00
20630;BME280;17386;43.846;25.950;2022-12-18T05:36:05;102607.03;;;4.10;100.00
20630;BME280;17386;43.846;25.950;2022-12-18T05:38:31;102613.75;;;3.98;100.00
20630;BME280;17386;43.846;25.950;2022-12-18T05:40:57;102618.34;;;4.05;100.00
20630;BME280;17386;43.846;25.950;2022-12-18T05:43:24;102629.78;;;4.08;100.00
20630;BME280;17386;43.846;25.950;2022-12-18T05:45:51;102628.91;;;4.08;100.00
20630;BME280;17386;43.846;25.950;2022-12-18T05:48:17;102609.94;;;3.82;100.00
20630;BME280;17386;43.846;25.950;2022-12-18T05:50:44;102637.31;;;3.92;100.00
20630;BME280;17386;43.846;25.950;2022-12-18T05:53:10;102647.84;;;3.92;100.00
20630;BME280;17386;43.846;25.950;2022-12-18T05:55:38;102645.31;;;3.98;100.00
20630;BME280;17386;43.846;25.950;2022-12-18T05:58:05;102654.03;;;3.95;100.00
20630;BME280;17386;43.846;25.950;2022-12-18T06:00:32;102654.78;;;3.90;100.00
20630;BME280;17386;43.846;25.950;2022-12-18T06:02:58;102638.97;;;3.87;100.00
20630;BME280;17386;43.846;25.950;2022-12-18T06:05:24;102645.25;;;3.93;100.00
20630;BME280;17386;43.846;25.950;2022-12-18T06:07:49;102648.00;;;3.99;100.00
20630;BME280;17386;43.846;25.950;2022-12-18T06:10:15;102663.84;;;4.02;100.00
20630;BME280;17386;43.846;25.950;2022-12-18T06:12:40;102673.44;;;4.00;100.00
20630;BME280;17386;43.846;25.950;2022-12-18T06:15:06;102685.06;;;4.10;100.00
20630;BME280;17386;43.846;25.950;2022-12-18T06:17:34;102686.78;;;4.08;100.00
20630;BME280;17386;43.846;25.950;2022-12-18T06:19:59;102687.50;;;4.01;100.00
20630;BME280;17386;43.846;25.950;2022-12-18T06:22:26;102688.31;;;3.98;100.00
20630;BME280;17386;43.846;25.950;2022-12-18T06:24:52;102677.59;;;3.91;100.00
20630;BME280;17386;43.846;25.950;2022-12-18T06:27:18;102692.78;;;4.02;100.00
20630;BME280;17386;43.846;25.950;2022-12-18T06:29:43;102701.41;;;3.97;100.00
20630;BME280;17386;43.846;25.950;2022-12-18T06:32:08;102711.06;;;3.98;100.00
20630;BME280;17386;43.846;25.950;2022-12-18T06:34:36;102716.31;;;3.96;100.00
20630;BME280;17386;43.846;25.950;2022-12-18T06:37:02;102719.81;;;3.97;100.00
20630;BME280;17386;43.846;25.950;2022-12-18T06:39:27;102713.50;;;3.89;100.00
20630;BME280;17386;43.846;25.950;2022-12-18T06:41:53;102717.13;;;3.94;100.00
20630;BME280;17386;43.846;25.950;2022-12-18T06:44:18;102721.56;;;3.96;100.00
20630;BME280;17386;43.846;25.950;2022-12-18T06:46:44;102732.06;;;3.95;100.00
20630;BME280;17386;43.846;25.950;2022-12-18T06:49:09;102726.91;;;3.99;100.00
20630;BME280;17386;43.846;25.950;2022-12-18T06:51:35;102731.38;;;4.03;100.00
20630;BME280;17386;43.846;25.950;2022-12-18T06:54:00;102742.00;;;4.08;100.00
20630;BME280;17386;43.846;25.950;2022-12-18T06:56:26;102744.66;;;4.09;100.00
20630;BME280;17386;43.846;25.950;2022-12-18T06:58:52;102754.63;;;4.23;100.00
20630;BME280;17386;43.846;25.950;2022-12-18T07:01:17;102747.72;;;4.28;100.00
20630;BME280;17386;43.846;25.950;2022-12-18T07:03:43;102762.38;;;4.17;100.00
20630;BME280;17386;43.846;25.950;2022-12-18T07:06:19;102766.00;;;4.22;100.00
20630;BME280;17386;43.846;25.950;2022-12-18T07:08:46;102760.00;;;4.27;100.00
20630;BME280;17386;43.846;25.950;2022-12-18T07:11:12;102779.28;;;4.28;100.00
20630;BME280;17386;43.846;25.950;2022-12-18T07:13:38;102781.09;;;4.30;100.00
20630;BME280;17386;43.846;25.950;2022-12-18T07:16:22;102785.47;;;4.30;100.00
20630;BME280;17386;43.846;25.950;2022-12-18T07:18:47;102785.88;;;4.47;100.00
20630;BME280;17386;43.846;25.950;2022-12-18T07:21:16;102806.34;;;4.60;100.00
20630;BME280;17386;43.846;25.950;2022-12-18T07:23:42;102800.81;;;4.49;100.00
20630;BME280;17386;43.846;25.950;2022-12-18T07:26:10;102802.03;;;4.63;100.00
20630;BME280;17386;43.846;25.950;2022-12-18T07:28:38;102815.16;;;4.62;100.00
20630;BME280;17386;43.846;25.950;2022-12-18T07:31:08;102817.78;;;4.62;100.00
20630;BME280;17386;43.846;25.950;2022-12-18T07:33:34;102809.78;;;4.57;100.00
20630;BME280;17386;43.846;25.950;2022-12-18T07:36:01;102820.41;;;4.60;100.00
20630;BME280;17386;43.846;25.950;2022-12-18T07:38:27;102822.31;;;4.68;100.00
20630;BME280;17386;43.846;25.950;2022-12-18T07:40:52;102830.13;;;4.64;100.00
20630;BME280;17386;43.846;25.950;2022-12-18T07:43:17;102831.97;;;4.69;100.00
20630;BME280;17386;43.846;25.950;2022-12-18T07:45:43;102842.69;;;4.76;100.00
20630;BME280;17386;43.846;25.950;2022-12-18T07:48:08;102841.84;;;4.79;100.00
20630;BME280;17386;43.846;25.950;2022-12-18T07:50:34;102828.59;;;4.74;100.00
20630;BME280;17386;43.846;25.950;2022-12-18T07:53:00;102832.44;;;4.90;100.00
20630;BME280;17386;43.846;25.950;2022-12-18T07:55:29;102838.81;;;5.01;100.00
20630;BME280;17386;43.846;25.950;2022-12-18T07:57:55;102837.88;;;4.99;100.00
20630;BME280;17386;43.846;25.950;2022-12-18T08:00:21;102842.56;;;5.12;100.00
20630;BME280;17386;43.846;25.950;2022-12-18T08:02:46;102852.31;;;5.16;100.00
20630;BME280;17386;43.846;25.950;2022-12-18T08:05:12;102843.84;;;5.33;100.00
20630;BME280;17386;43.846;25.950;2022-12-18T08:07:38;102847.59;;;5.45;100.00
20630;BME280;17386;43.846;25.950;2022-12-18T08:10:04;102858.19;;;5.48;100.00
20630;BME280;17386;43.846;25.950;2022-12-18T08:12:29;102857.66;;;5.66;100.00
20630;BME280;17386;43.846;25.950;2022-12-18T08:14:54;102858.31;;;5.55;100.00
20630;BME280;17386;43.846;25.950;2022-12-18T08:17:20;102855.50;;;5.44;100.00
20630;BME280;17386;43.846;25.950;2022-12-18T08:19:45;102854.66;;;5.46;100.00
20630;BME280;17386;43.846;25.950;2022-12-18T08:22:11;102855.34;;;5.36;100.00
20630;BME280;17386;43.846;25.950;2022-12-18T08:24:36;102859.78;;;5.39;100.00
20630;BME280;17386;43.846;25.950;2022-12-18T08:27:01;102871.22;;;5.41;100.00
20630;BME280;17386;43.846;25.950;2022-12-18T08:29:27;102864.59;;;5.61;100.00
20630;BME280;17386;43.846;25.950;2022-12-18T08:31:52;102870.19;;;5.78;100.00
20630;BME280;17386;43.846;25.950;2022-12-18T08:34:18;102873.81;;;5.85;100.00
20630;BME280;17386;43.846;25.950;2022-12-18T08:36:43;102876.16;;;5.68;100.00
20630;BME280;17386;43.846;25.950;2022-12-18T08:39:08;102879.75;;;5.73;100.00
20630;BME280;17386;43.846;25.950;2022-12-18T08:41:34;102878.03;;;5.75;100.00
20630;BME280;17386;43.846;25.950;2022-12-18T08:43:59;102878.53;;;6.01;100.00
20630;BME280;17386;43.846;25.950;2022-12-18T08:46:43;102883.84;;;6.02;100.00
20630;BME280;17386;43.846;25.950;2022-12-18T08:49:10;102884.13;;;6.19;100.00
20630;BME280;17386;43.846;25.950;2022-12-18T08:51:37;102883.53;;;6.37;100.00
20630;BME280;17386;43.846;25.950;2022-12-18T08:54:03;102884.91;;;6.12;100.00
20630;BME280;17386;43.846;25.950;2022-12-18T08:56:29;102874.97;;;5.97;100.00
20630;BME280;17386;43.846;25.950;2022-12-18T08:58:55;102876.75;;;5.98;100.00
20630;BME280;17386;43.846;25.950;2022-12-18T09:01:21;102881.19;;;6.01;100.00
20630;BME280;17386;43.846;25.950;2022-12-18T09:03:47;102883.34;;;5.76;100.00
20630;BME280;17386;43.846;25.950;2022-12-18T09:06:14;102882.50;;;5.79;100.00
20630;BME280;17386;43.846;25.950;2022-12-18T09:08:41;102881.81;;;5.89;100.00
20630;BME280;17386;43.846;25.950;2022-12-18T09:11:16;102884.91;;;6.14;100.00
20630;BME280;17386;43.846;25.950;2022-12-18T09:13:44;102884.00;;;6.12;100.00
20630;BME280;17386;43.846;25.950;2022-12-18T09:16:10;102894.38;;;6.02;100.00
20630;BME280;17386;43.846;25.950;2022-12-18T09:18:36;102886.81;;;6.22;100.00
20630;BME280;17386;43.846;25.950;2022-12-18T09:21:08;102893.16;;;6.32;100.00
20630;BME280;17386;43.846;25.950;2022-12-18T09:23:34;102900.22;;;6.35;100.00
20630;BME280;17386;43.846;25.950;2022-12-18T09:26:00;102910.13;;;6.49;100.00
20630;BME280;17386;43.846;25.950;2022-12-18T09:28:26;102890.41;;;6.27;100.00
20630;BME280;17386;43.846;25.950;2022-12-18T09:30:52;102888.47;;;6.17;100.00
20630;BME280;17386;43.846;25.950;2022-12-18T09:33:17;102886.41;;;5.98;100.00
20630;BME280;17386;43.846;25.950;2022-12-18T09:35:44;102882.16;;;6.06;100.00
20630;BME280;17386;43.846;25.950;2022-12-18T09:38:12;102888.19;;;5.99;100.00
20630;BME280;17386;43.846;25.950;2022-12-18T09:40:43;102895.56;;;6.20;100.00
20630;BME280;17386;43.846;25.950;2022-12-18T09:43:17;102884.47;;;6.41;100.00
20630;BME280;17386;43.846;25.950;2022-12-18T09:45:46;102883.75;;;6.51;100.00
20630;BME280;17386;43.846;25.950;2022-12-18T09:48:20;102887.53;;;6.68;98.76
20630;BME280;17386;43.846;25.950;2022-12-18T09:50:48;102890.13;;;6.65;97.36
20630;BME280;17386;43.846;25.950;2022-12-18T09:53:19;102874.72;;;6.37;97.73
20630;BME280;17386;43.846;25.950;2022-12-18T09:55:46;102872.38;;;6.56;97.89
20630;BME280;17386;43.846;25.950;2022-12-18T09:58:22;102879.44;;;6.57;96.44
20630;BME280;17386;43.846;25.950;2022-12-18T10:00:52;102883.84;;;6.58;96.70
20630;BME280;17386;43.846;25.950;2022-12-18T10:03:18;102896.09;;;6.52;96.76
20630;BME280;17386;43.846;25.950;2022-12-18T10:06:04;102891.84;;;6.63;97.18
20630;BME280;17386;43.846;25.950;2022-12-18T10:14:30;102895.28;;;6.57;96.51
20630;BME280;17386;43.846;25.950;2022-12-18T10:20:02;102891.75;;;6.57;96.42
20630;BME280;17386;43.846;25.950;2022-12-18T10:25:45;102912.31;;;6.22;97.52
20630;BME280;17386;43.846;25.950;2022-12-18T10:28:14;102904.31;;;6.17;98.41
20630;BME280;17386;43.846;25.950;2022-12-18T10:30:41;102908.91;;;6.29;99.39
20630;BME280;17386;43.846;25.950;2022-12-18T10:33:16;102909.25;;;6.49;98.80
20630;BME280;17386;43.846;25.950;2022-12-18T10:35:42;102916.47;;;6.61;97.58
20630;BME280;17386;43.846;25.950;2022-12-18T10:38:22;102913.94;;;6.67;96.95
20630;BME280;17386;43.846;25.950;2022-12-18T10:43:42;102916.72;;;6.23;98.27
20630;BME280;17386;43.846;25.950;2022-12-18T10:48:54;102914.44;;;6.43;99.44
20630;BME280;17386;43.846;25.950;2022-12-18T10:51:34;102917.38;;;6.63;98.82
20630;BME280;17386;43.846;25.950;2022-12-18T10:56:29;102936.97;;;6.75;97.00
20630;BME280;17386;43.846;25.950;2022-12-18T10:59:05;102939.69;;;6.80;97.17
20630;BME280;17386;43.846;25.950;2022-12-18T11:04:21;102935.50;;;6.97;96.19
20630;BME280;17386;43.846;25.950;2022-12-18T11:09:32;102937.03;;;6.80;96.38
20630;BME280;17386;43.846;25.950;2022-12-18T11:12:00;102930.66;;;6.67;96.52
20630;BME280;17386;43.846;25.950;2022-12-18T11:14:32;102940.31;;;6.65;96.58
20630;BME280;17386;43.846;25.950;2022-12-18T11:17:00;102945.66;;;6.68;96.90
20630;BME280;17386;43.846;25.950;2022-12-18T11:19:36;102940.75;;;6.38;97.17
20630;BME280;17386;43.846;25.950;2022-12-18T11:22:23;102936.22;;;6.29;97.33
20630;BME280;17386;43.846;25.950;2022-12-18T11:25:04;102946.97;;;6.40;98.08
20630;BME280;17386;43.846;25.950;2022-12-18T11:27:31;102948.19;;;6.61;97.45
20630;BME280;17386;43.846;25.950;2022-12-18T11:32:52;102953.13;;;6.98;96.22
20630;BME280;17386;43.846;25.950;2022-12-18T11:36:07;102954.19;;;7.09;94.62
20630;BME280;17386;43.846;25.950;2022-12-18T11:38:39;102958.56;;;7.07;94.38
20630;BME280;17386;43.846;25.950;2022-12-18T11:41:23;102951.47;;;7.03;94.12
20630;BME280;17386;43.846;25.950;2022-12-18T11:44:11;102957.78;;;7.15;94.03
20630;BME280;17386;43.846;25.950;2022-12-18T11:46:45;102956.03;;;7.15;93.73
20630;BME280;17386;43.846;25.950;2022-12-18T11:49:18;102956.84;;;7.11;93.76
20630;BME280;17386;43.846;25.950;2022-12-18T11:51:54;102957.91;;;7.22;93.65
20630;BME280;17386;43.846;25.950;2022-12-18T11:54:21;102959.34;;;7.00;93.16
20630;BME280;17386;43.846;25.950;2022-12-18T11:56:50;102952.13;;;6.89;93.55
20630;BME280;17386;43.846;25.950;2022-12-18T12:05:41;102966.59;;;6.57;94.80
20630;BME280;17386;43.846;25.950;2022-12-18T12:11:04;102961.84;;;6.91;94.96
20630;BME280;17386;43.846;25.950;2022-12-18T12:16:25;102962.13;;;7.11;93.23
20630;BME280;17386;43.846;25.950;2022-12-18T12:19:15;102957.44;;;6.92;93.94
20630;BME280;17386;43.846;25.950;2022-12-18T12:21:51;102962.88;;;7.01;93.88
20630;BME280;17386;43.846;25.950;2022-12-18T12:30:17;102964.09;;;7.27;93.86
20630;BME280;17386;43.846;25.950;2022-12-18T12:35:54;102959.94;;;7.43;93.13
20630;BME280;17386;43.846;25.950;2022-12-18T12:38:36;102968.75;;;7.45;92.26
20630;BME280;17386;43.846;25.950;2022-12-18T12:41:09;102972.28;;;7.43;92.37
20630;BME280;17386;43.846;25.950;2022-12-18T12:43:59;102968.69;;;7.40;92.90
20630;BME280;17386;43.846;25.950;2022-12-18T12:46:27;102973.09;;;7.38;92.81
20630;BME280;17386;43.846;25.950;2022-12-18T12:48:59;102976.63;;;7.39;92.53
20630;BME280;17386;43.846;25.950;2022-12-18T12:51:28;102977.47;;;7.36;92.00
20630;BME280;17386;43.846;25.950;2022-12-18T12:53:57;102973.06;;;7.37;92.51
20630;BME280;17386;43.846;25.950;2022-12-18T12:56:24;102975.72;;;7.37;92.84
20630;BME280;17386;43.846;25.950;2022-12-18T13:04:34;102987.88;;;7.26;93.90
20630;BME280;17386;43.846;25.950;2022-12-18T13:07:09;102990.50;;;7.21;93.57
20630;BME280;17386;43.846;25.950;2022-12-18T13:17:48;103006.84;;;6.96;94.96
20630;BME280;17386;43.846;25.950;2022-12-18T13:20:15;102999.81;;;6.96;95.05
20630;BME280;17386;43.846;25.950;2022-12-18T13:22:46;103008.69;;;7.01;95.17
20630;BME280;17386;43.846;25.950;2022-12-18T13:25:32;103014.03;;;7.06;95.16
20630;BME280;17386;43.846;25.950;2022-12-18T13:39:33;103035.94;;;6.97;95.79
20630;BME280;17386;43.846;25.950;2022-12-18T13:44:38;103044.72;;;6.96;96.23
20630;BME280;17386;43.846;25.950;2022-12-18T13:47:30;103047.38;;;6.96;96.25
20630;BME280;17386;43.846;25.950;2022-12-18T13:49:57;103050.03;;;6.96;96.22
20630;BME280;17386;43.846;25.950;2022-12-18T13:52:28;103056.06;;;6.89;96.36
20630;BME280;17386;43.846;25.950;2022-12-18T13:54:59;103064.78;;;6.83;96.65
20630;BME280;17386;43.846;25.950;2022-12-18T13:57:33;103064.66;;;6.77;96.64
20630;BME280;17386;43.846;25.950;2022-12-18T14:02:49;103076.06;;;6.73;97.42
20630;BME280;17386;43.846;25.950;2022-12-18T14:05:32;103082.28;;;6.77;97.68
20630;BME280;17386;43.846;25.950;2022-12-18T14:08:05;103091.09;;;6.79;97.29
20630;BME280;17386;43.846;25.950;2022-12-18T14:10:32;103101.63;;;6.74;97.58
20630;BME280;17386;43.846;25.950;2022-12-18T14:13:04;103093.59;;;6.68;98.08
20630;BME280;17386;43.846;25.950;2022-12-18T14:15:31;103090.06;;;6.68;98.02
20630;BME280;17386;43.846;25.950;2022-12-18T14:18:08;103093.59;;;6.68;98.22
20630;BME280;17386;43.846;25.950;2022-12-18T14:20:41;103101.50;;;6.68;98.07
20630;BME280;17386;43.846;25.950;2022-12-18T14:25:53;103095.31;;;6.66;98.69
20630;BME280;17386;43.846;25.950;2022-12-18T14:28:19;103091.81;;;6.67;99.31
20630;BME280;17386;43.846;25.950;2022-12-18T14:30:47;103099.63;;;6.63;99.67
20630;BME280;17386;43.846;25.950;2022-12-18T14:33:30;103104.25;;;6.73;99.58
20630;BME280;17386;43.846;25.950;2022-12-18T14:36:01;103101.63;;;6.74;99.18
20630;BME280;17386;43.846;25.950;2022-12-18T14:41:00;103106.94;;;6.76;99.16